sensor_id;sensor_type;location;lat;lon;timestamp;P1;durP1;ratioP1;P2;durP2;ratioP2
65172;SDS011;51758;52.218;5.172;2023-04-01T00:00:31;40.60;;;13.03;;
65172;SDS011;51758;52.218;5.172;2023-04-01T00:02:59;48.80;;;13.52;;
65172;SDS011;51758;52.218;5.172;2023-04-01T00:05:27;31.13;;;11.27;;
65172;SDS011;51758;52.218;5.172;2023-04-01T00:07:55;39.38;;;12.05;;
65172;SDS011;51758;52.218;5.172;2023-04-01T00:10:23;34.80;;;11.80;;
65172;SDS011;51758;52.218;5.172;2023-04-01T00:12:51;31.00;;;11.23;;
65172;SDS011;51758;52.218;5.172;2023-04-01T00:15:20;41.65;;;13.60;;
65172;SDS011;51758;52.218;5.172;2023-04-01T00:17:48;39.40;;;12.70;;
65172;SDS011;51758;52.218;5.172;2023-04-01T00:20:16;43.83;;;13.53;;
65172;SDS011;51758;52.218;5.172;2023-04-01T00:22:44;42.38;;;15.43;;
65172;SDS011;51758;52.218;5.172;2023-04-01T00:25:12;44.33;;;16.67;;
65172;SDS011;51758;52.218;5.172;2023-04-01T00:30:08;51.83;;;17.43;;
65172;SDS011;51758;52.218;5.172;2023-04-01T00:32:38;44.65;;;16.45;;
65172;SDS011;51758;52.218;5.172;2023-04-01T00:35:06;50.10;;;18.07;;
65172;SDS011;51758;52.218;5.172;2023-04-01T00:37:35;43.78;;;17.13;;
65172;SDS011;51758;52.218;5.172;2023-04-01T00:40:04;49.47;;;18.47;;
65172;SDS011;51758;52.218;5.172;2023-04-01T00:42:34;47.97;;;17.80;;
65172;SDS011;51758;52.218;5.172;2023-04-01T00:47:54;54.33;;;19.97;;
65172;SDS011;51758;52.218;5.172;2023-04-01T00:50:23;53.80;;;20.40;;
65172;SDS011;51758;52.218;5.172;2023-04-01T00:52:53;49.47;;;18.27;;
65172;SDS011;51758;52.218;5.172;2023-04-01T00:55:21;54.38;;;18.83;;
65172;SDS011;51758;52.218;5.172;2023-04-01T00:57:50;49.43;;;18.97;;
65172;SDS011;51758;52.218;5.172;2023-04-01T01:00:22;38.87;;;16.77;;
65172;SDS011;51758;52.218;5.172;2023-04-01T01:02:50;46.50;;;15.73;;
65172;SDS011;51758;52.218;5.172;2023-04-01T01:05:20;42.33;;;16.33;;
65172;SDS011;51758;52.218;5.172;2023-04-01T01:07:56;40.03;;;14.97;;
65172;SDS011;51758;52.218;5.172;2023-04-01T01:10:31;41.53;;;15.20;;
65172;SDS011;51758;52.218;5.172;2023-04-01T01:13:04;36.37;;;15.67;;
65172;SDS011;51758;52.218;5.172;2023-04-01T01:15:40;36.37;;;14.10;;
65172;SDS011;51758;52.218;5.172;2023-04-01T01:18:14;39.57;;;16.63;;
65172;SDS011;51758;52.218;5.172;2023-04-01T01:20:56;24.73;;;12.17;;
65172;SDS011;51758;52.218;5.172;2023-04-01T01:29:32;28.60;;;11.27;;
65172;SDS011;51758;52.218;5.172;2023-04-01T01:32:11;33.63;;;12.87;;
65172;SDS011;51758;52.218;5.172;2023-04-01T01:34:48;25.80;;;11.90;;
65172;SDS011;51758;52.218;5.172;2023-04-01T01:37:23;30.03;;;10.90;;
65172;SDS011;51758;52.218;5.172;2023-04-01T01:39:54;24.70;;;11.17;;
65172;SDS011;51758;52.218;5.172;2023-04-01T01:42:24;22.80;;;9.53;;
65172;SDS011;51758;52.218;5.172;2023-04-01T01:44:54;19.97;;;9.13;;
65172;SDS011;51758;52.218;5.172;2023-04-01T01:47:25;24.33;;;10.63;;
65172;SDS011;51758;52.218;5.172;2023-04-01T01:49:55;16.83;;;8.87;;
65172;SDS011;51758;52.218;5.172;2023-04-01T01:52:26;23.20;;;10.60;;
65172;SDS011;51758;52.218;5.172;2023-04-01T01:54:56;18.63;;;9.33;;
65172;SDS011;51758;52.218;5.172;2023-04-01T01:57:25;21.67;;;9.83;;
65172;SDS011;51758;52.218;5.172;2023-04-01T01:59:56;17.87;;;8.27;;
65172;SDS011;51758;52.218;5.172;2023-04-01T02:02:28;18.53;;;8.67;;
65172;SDS011;51758;52.218;5.172;2023-04-01T02:04:57;15.87;;;8.20;;
65172;SDS011;51758;52.218;5.172;2023-04-01T02:07:28;23.45;;;8.55;;
65172;SDS011;51758;52.218;5.172;2023-04-01T02:10:00;16.40;;;7.77;;
65172;SDS011;51758;52.218;5.172;2023-04-01T02:12:28;16.48;;;7.53;;
65172;SDS011;51758;52.218;5.172;2023-04-01T02:14:57;16.02;;;7.68;;
65172;SDS011;51758;52.218;5.172;2023-04-01T02:17:31;18.73;;;7.93;;
65172;SDS011;51758;52.218;5.172;2023-04-01T02:20:01;23.23;;;9.40;;
65172;SDS011;51758;52.218;5.172;2023-04-01T02:22:35;24.30;;;9.87;;
65172;SDS011;51758;52.218;5.172;2023-04-01T02:25:08;26.40;;;10.07;;
65172;SDS011;51758;52.218;5.172;2023-04-01T02:27:38;25.83;;;9.90;;
65172;SDS011;51758;52.218;5.172;2023-04-01T02:30:06;22.75;;;9.90;;
65172;SDS011;51758;52.218;5.172;2023-04-01T02:32:35;27.83;;;10.30;;
65172;SDS011;51758;52.218;5.172;2023-04-01T02:35:06;25.70;;;10.63;;
65172;SDS011;51758;52.218;5.172;2023-04-01T02:37:38;22.40;;;9.87;;
65172;SDS011;51758;52.218;5.172;2023-04-01T02:40:08;21.63;;;10.87;;
65172;SDS011;51758;52.218;5.172;2023-04-01T02:42:38;26.90;;;11.73;;
65172;SDS011;51758;52.218;5.172;2023-04-01T02:45:06;28.13;;;11.30;;
65172;SDS011;51758;52.218;5.172;2023-04-01T02:47:35;31.07;;;12.67;;
65172;SDS011;51758;52.218;5.172;2023-04-01T02:50:03;30.37;;;13.93;;
65172;SDS011;51758;52.218;5.172;2023-04-01T02:52:32;41.00;;;14.83;;
65172;SDS011;51758;52.218;5.172;2023-04-01T02:55:01;40.20;;;16.93;;
65172;SDS011;51758;52.218;5.172;2023-04-01T02:57:29;37.00;;;17.03;;
65172;SDS011;51758;52.218;5.172;2023-04-01T02:59:57;52.17;;;18.83;;
65172;SDS011;51758;52.218;5.172;2023-04-01T03:02:25;46.37;;;18.83;;
65172;SDS011;51758;52.218;5.172;2023-04-01T03:04:53;46.95;;;18.77;;
65172;SDS011;51758;52.218;5.172;2023-04-01T03:07:21;45.37;;;19.93;;
65172;SDS011;51758;52.218;5.172;2023-04-01T03:09:49;47.17;;;19.80;;
65172;SDS011;51758;52.218;5.172;2023-04-01T03:12:18;55.10;;;20.37;;
65172;SDS011;51758;52.218;5.172;2023-04-01T03:14:46;43.47;;;17.73;;
65172;SDS011;51758;52.218;5.172;2023-04-01T03:17:13;37.73;;;18.00;;
65172;SDS011;51758;52.218;5.172;2023-04-01T03:19:41;33.27;;;16.70;;
65172;SDS011;51758;52.218;5.172;2023-04-01T03:22:09;52.37;;;17.97;;
65172;SDS011;51758;52.218;5.172;2023-04-01T03:24:37;67.47;;;18.92;;
65172;SDS011;51758;52.218;5.172;2023-04-01T03:27:05;49.80;;;17.70;;
65172;SDS011;51758;52.218;5.172;2023-04-01T03:29:35;50.30;;;16.90;;
65172;SDS011;51758;52.218;5.172;2023-04-01T03:32:03;49.03;;;15.87;;
65172;SDS011;51758;52.218;5.172;2023-04-01T03:34:30;46.13;;;15.70;;
65172;SDS011;51758;52.218;5.172;2023-04-01T03:36:59;52.83;;;16.40;;
65172;SDS011;51758;52.218;5.172;2023-04-01T03:41:55;36.77;;;14.23;;
65172;SDS011;51758;52.218;5.172;2023-04-01T03:44:23;35.53;;;14.60;;
65172;SDS011;51758;52.218;5.172;2023-04-01T03:46:52;44.90;;;15.27;;
65172;SDS011;51758;52.218;5.172;2023-04-01T03:49:20;43.80;;;15.93;;
65172;SDS011;51758;52.218;5.172;2023-04-01T03:51:48;43.63;;;15.67;;
65172;SDS011;51758;52.218;5.172;2023-04-01T03:54:15;45.55;;;15.18;;
65172;SDS011;51758;52.218;5.172;2023-04-01T03:56:44;43.20;;;13.77;;
65172;SDS011;51758;52.218;5.172;2023-04-01T03:59:12;30.80;;;11.50;;
65172;SDS011;51758;52.218;5.172;2023-04-01T04:01:40;23.75;;;9.15;;
65172;SDS011;51758;52.218;5.172;2023-04-01T04:04:10;19.67;;;8.07;;
65172;SDS011;51758;52.218;5.172;2023-04-01T04:06:38;18.27;;;7.67;;
65172;SDS011;51758;52.218;5.172;2023-04-01T04:09:06;15.00;;;7.40;;
65172;SDS011;51758;52.218;5.172;2023-04-01T04:11:34;16.20;;;6.67;;
65172;SDS011;51758;52.218;5.172;2023-04-01T04:14:02;15.17;;;6.50;;
65172;SDS011;51758;52.218;5.172;2023-04-01T04:16:29;12.57;;;5.87;;
65172;SDS011;51758;52.218;5.172;2023-04-01T04:18:57;15.57;;;6.38;;
65172;SDS011;51758;52.218;5.172;2023-04-01T04:21:26;13.40;;;5.83;;
65172;SDS011;51758;52.218;5.172;2023-04-01T04:23:54;14.77;;;5.67;;
65172;SDS011;51758;52.218;5.172;2023-04-01T04:26:22;12.43;;;6.10;;
65172;SDS011;51758;52.218;5.172;2023-04-01T04:28:50;16.30;;;6.77;;
65172;SDS011;51758;52.218;5.172;2023-04-01T04:31:18;17.97;;;7.87;;
65172;SDS011;51758;52.218;5.172;2023-04-01T04:33:47;16.67;;;6.80;;
65172;SDS011;51758;52.218;5.172;2023-04-01T04:36:15;17.47;;;6.67;;
65172;SDS011;51758;52.218;5.172;2023-04-01T04:38:44;16.95;;;7.40;;
65172;SDS011;51758;52.218;5.172;2023-04-01T04:41:12;13.53;;;6.70;;
65172;SDS011;51758;52.218;5.172;2023-04-01T04:43:41;12.93;;;6.73;;
65172;SDS011;51758;52.218;5.172;2023-04-01T04:46:09;16.20;;;7.55;;
65172;SDS011;51758;52.218;5.172;2023-04-01T04:48:38;16.80;;;7.95;;
65172;SDS011;51758;52.218;5.172;2023-04-01T04:51:05;14.43;;;8.18;;
65172;SDS011;51758;52.218;5.172;2023-04-01T04:53:33;15.03;;;7.30;;
65172;SDS011;51758;52.218;5.172;2023-04-01T04:56:03;15.45;;;7.97;;
65172;SDS011;51758;52.218;5.172;2023-04-01T04:58:30;18.07;;;8.60;;
65172;SDS011;51758;52.218;5.172;2023-04-01T05:00:58;15.93;;;8.40;;
65172;SDS011;51758;52.218;5.172;2023-04-01T05:03:26;20.77;;;9.05;;
65172;SDS011;51758;52.218;5.172;2023-04-01T05:05:54;15.65;;;8.25;;
65172;SDS011;51758;52.218;5.172;2023-04-01T05:08:22;19.70;;;9.50;;
65172;SDS011;51758;52.218;5.172;2023-04-01T05:10:49;16.10;;;8.97;;
65172;SDS011;51758;52.218;5.172;2023-04-01T05:13:18;19.03;;;9.33;;
65172;SDS011;51758;52.218;5.172;2023-04-01T05:15:46;18.63;;;9.23;;
65172;SDS011;51758;52.218;5.172;2023-04-01T05:18:14;18.90;;;9.10;;
65172;SDS011;51758;52.218;5.172;2023-04-01T05:20:45;20.40;;;9.50;;
65172;SDS011;51758;52.218;5.172;2023-04-01T05:23:14;16.60;;;9.20;;
65172;SDS011;51758;52.218;5.172;2023-04-01T05:25:43;17.95;;;8.82;;
65172;SDS011;51758;52.218;5.172;2023-04-01T05:30:40;17.57;;;8.83;;
65172;SDS011;51758;52.218;5.172;2023-04-01T05:33:09;19.13;;;8.57;;
65172;SDS011;51758;52.218;5.172;2023-04-01T05:35:37;16.45;;;8.13;;
65172;SDS011;51758;52.218;5.172;2023-04-01T05:38:05;15.35;;;8.63;;
65172;SDS011;51758;52.218;5.172;2023-04-01T05:40:34;20.10;;;8.93;;
65172;SDS011;51758;52.218;5.172;2023-04-01T05:43:01;20.83;;;9.18;;
65172;SDS011;51758;52.218;5.172;2023-04-01T05:45:29;20.93;;;9.03;;
65172;SDS011;51758;52.218;5.172;2023-04-01T05:48:00;21.42;;;9.23;;
65172;SDS011;51758;52.218;5.172;2023-04-01T05:50:27;16.47;;;8.60;;
65172;SDS011;51758;52.218;5.172;2023-04-01T05:52:55;16.15;;;9.10;;
65172;SDS011;51758;52.218;5.172;2023-04-01T05:55:23;18.05;;;9.18;;
65172;SDS011;51758;52.218;5.172;2023-04-01T05:57:51;18.77;;;9.40;;
65172;SDS011;51758;52.218;5.172;2023-04-01T06:00:19;16.87;;;8.53;;
65172;SDS011;51758;52.218;5.172;2023-04-01T06:02:47;22.35;;;8.73;;
65172;SDS011;51758;52.218;5.172;2023-04-01T06:05:19;21.45;;;8.68;;
65172;SDS011;51758;52.218;5.172;2023-04-01T06:07:48;15.37;;;7.50;;
65172;SDS011;51758;52.218;5.172;2023-04-01T06:10:16;23.30;;;9.45;;
65172;SDS011;51758;52.218;5.172;2023-04-01T06:12:51;20.07;;;8.90;;
65172;SDS011;51758;52.218;5.172;2023-04-01T06:15:29;19.40;;;8.57;;
65172;SDS011;51758;52.218;5.172;2023-04-01T06:21:15;16.33;;;7.83;;
65172;SDS011;51758;52.218;5.172;2023-04-01T06:24:05;12.57;;;6.60;;
65172;SDS011;51758;52.218;5.172;2023-04-01T06:26:46;14.10;;;6.33;;
65172;SDS011;51758;52.218;5.172;2023-04-01T06:29:32;15.93;;;7.27;;
65172;SDS011;51758;52.218;5.172;2023-04-01T06:32:22;11.80;;;6.13;;
65172;SDS011;51758;52.218;5.172;2023-04-01T06:38:21;15.17;;;7.17;;
65172;SDS011;51758;52.218;5.172;2023-04-01T06:44:06;14.27;;;6.63;;
65172;SDS011;51758;52.218;5.172;2023-04-01T06:46:44;14.97;;;6.63;;
65172;SDS011;51758;52.218;5.172;2023-04-01T06:49:21;13.07;;;6.10;;
65172;SDS011;51758;52.218;5.172;2023-04-01T06:52:02;15.77;;;6.53;;
65172;SDS011;51758;52.218;5.172;2023-04-01T06:54:42;11.17;;;6.80;;
65172;SDS011;51758;52.218;5.172;2023-04-01T06:57:18;17.07;;;8.17;;
65172;SDS011;51758;52.218;5.172;2023-04-01T06:59:49;24.30;;;8.90;;
65172;SDS011;51758;52.218;5.172;2023-04-01T07:02:22;20.47;;;9.70;;
65172;SDS011;51758;52.218;5.172;2023-04-01T07:04:56;17.73;;;9.73;;
65172;SDS011;51758;52.218;5.172;2023-04-01T07:07:27;21.23;;;9.93;;
65172;SDS011;51758;52.218;5.172;2023-04-01T07:10:03;20.40;;;9.43;;
65172;SDS011;51758;52.218;5.172;2023-04-01T07:12:40;15.97;;;8.23;;
65172;SDS011;51758;52.218;5.172;2023-04-01T07:15:16;22.53;;;9.47;;
65172;SDS011;51758;52.218;5.172;2023-04-01T07:17:48;18.17;;;8.13;;
65172;SDS011;51758;52.218;5.172;2023-04-01T07:20:22;16.30;;;8.90;;
65172;SDS011;51758;52.218;5.172;2023-04-01T07:22:54;19.43;;;9.00;;
65172;SDS011;51758;52.218;5.172;2023-04-01T07:25:27;22.27;;;9.03;;
65172;SDS011;51758;52.218;5.172;2023-04-01T07:28:00;16.63;;;8.83;;
65172;SDS011;51758;52.218;5.172;2023-04-01T07:30:33;24.93;;;9.50;;
65172;SDS011;51758;52.218;5.172;2023-04-01T07:33:12;24.73;;;9.83;;
65172;SDS011;51758;52.218;5.172;2023-04-01T07:35:49;20.90;;;10.40;;
65172;SDS011;51758;52.218;5.172;2023-04-01T07:38:26;26.90;;;10.57;;
65172;SDS011;51758;52.218;5.172;2023-04-01T07:41:06;23.07;;;10.63;;
65172;SDS011;51758;52.218;5.172;2023-04-01T07:43:44;21.37;;;9.93;;
65172;SDS011;51758;52.218;5.172;2023-04-01T07:46:24;24.10;;;10.57;;
65172;SDS011;51758;52.218;5.172;2023-04-01T07:49:06;22.60;;;11.30;;
65172;SDS011;51758;52.218;5.172;2023-04-01T07:51:41;23.50;;;10.67;;
65172;SDS011;51758;52.218;5.172;2023-04-01T07:54:18;22.10;;;10.03;;
65172;SDS011;51758;52.218;5.172;2023-04-01T07:56:54;22.13;;;11.00;;
65172;SDS011;51758;52.218;5.172;2023-04-01T07:59:29;28.30;;;11.50;;
65172;SDS011;51758;52.218;5.172;2023-04-01T08:02:10;24.98;;;11.35;;
65172;SDS011;51758;52.218;5.172;2023-04-01T08:04:52;26.53;;;10.87;;
65172;SDS011;51758;52.218;5.172;2023-04-01T08:07:28;23.73;;;11.07;;
65172;SDS011;51758;52.218;5.172;2023-04-01T08:10:04;21.00;;;10.23;;
65172;SDS011;51758;52.218;5.172;2023-04-01T08:12:42;24.37;;;11.90;;
65172;SDS011;51758;52.218;5.172;2023-04-01T08:15:19;24.97;;;10.83;;
65172;SDS011;51758;52.218;5.172;2023-04-01T08:17:56;20.70;;;10.47;;
65172;SDS011;51758;52.218;5.172;2023-04-01T08:20:32;19.98;;;10.43;;
65172;SDS011;51758;52.218;5.172;2023-04-01T08:23:06;22.00;;;10.67;;
65172;SDS011;51758;52.218;5.172;2023-04-01T08:25:40;19.37;;;10.13;;
65172;SDS011;51758;52.218;5.172;2023-04-01T08:28:17;22.00;;;10.43;;
65172;SDS011;51758;52.218;5.172;2023-04-01T08:30:51;21.47;;;10.63;;
65172;SDS011;51758;52.218;5.172;2023-04-01T08:33:24;23.27;;;10.90;;
65172;SDS011;51758;52.218;5.172;2023-04-01T08:35:55;22.73;;;11.00;;
65172;SDS011;51758;52.218;5.172;2023-04-01T08:38:28;21.23;;;11.17;;
65172;SDS011;51758;52.218;5.172;2023-04-01T08:40:59;19.73;;;10.17;;
65172;SDS011;51758;52.218;5.172;2023-04-01T08:46:35;16.30;;;9.13;;
65172;SDS011;51758;52.218;5.172;2023-04-01T08:49:40;17.93;;;9.80;;
65172;SDS011;51758;52.218;5.172;2023-04-01T08:52:21;22.10;;;9.10;;
65172;SDS011;51758;52.218;5.172;2023-04-01T08:55:04;17.17;;;8.27;;
65172;SDS011;51758;52.218;5.172;2023-04-01T08:58:04;12.87;;;7.57;;
65172;SDS011;51758;52.218;5.172;2023-04-01T09:00:47;13.10;;;7.70;;
65172;SDS011;51758;52.218;5.172;2023-04-01T09:03:37;17.27;;;7.83;;
65172;SDS011;51758;52.218;5.172;2023-04-01T09:06:29;18.27;;;7.63;;
65172;SDS011;51758;52.218;5.172;2023-04-01T09:09:09;15.03;;;7.90;;
65172;SDS011;51758;52.218;5.172;2023-04-01T09:12:07;14.27;;;6.63;;
65172;SDS011;51758;52.218;5.172;2023-04-01T09:15:12;15.47;;;7.03;;
65172;SDS011;51758;52.218;5.172;2023-04-01T09:17:53;15.20;;;6.97;;
65172;SDS011;51758;52.218;5.172;2023-04-01T09:20:42;17.07;;;7.23;;
65172;SDS011;51758;52.218;5.172;2023-04-01T09:26:22;11.83;;;6.83;;
65172;SDS011;51758;52.218;5.172;2023-04-01T09:29:05;14.73;;;7.40;;
65172;SDS011;51758;52.218;5.172;2023-04-01T09:31:51;12.93;;;6.70;;
65172;SDS011;51758;52.218;5.172;2023-04-01T09:37:41;13.20;;;7.60;;
65172;SDS011;51758;52.218;5.172;2023-04-01T09:40:21;9.73;;;5.73;;
65172;SDS011;51758;52.218;5.172;2023-04-01T09:43:05;10.93;;;6.43;;
65172;SDS011;51758;52.218;5.172;2023-04-01T09:45:46;9.33;;;5.33;;
65172;SDS011;51758;52.218;5.172;2023-04-01T09:48:38;12.13;;;6.47;;
65172;SDS011;51758;52.218;5.172;2023-04-01T09:51:21;10.33;;;7.10;;
65172;SDS011;51758;52.218;5.172;2023-04-01T09:53:59;11.03;;;7.07;;
65172;SDS011;51758;52.218;5.172;2023-04-01T09:56:43;10.80;;;6.90;;
65172;SDS011;51758;52.218;5.172;2023-04-01T09:59:47;11.53;;;7.10;;
65172;SDS011;51758;52.218;5.172;2023-04-01T10:02:41;11.40;;;7.10;;
65172;SDS011;51758;52.218;5.172;2023-04-01T10:05:53;10.30;;;7.03;;
65172;SDS011;51758;52.218;5.172;2023-04-01T10:08:47;12.37;;;7.80;;
65172;SDS011;51758;52.218;5.172;2023-04-01T10:14:37;15.57;;;9.53;;
65172;SDS011;51758;52.218;5.172;2023-04-01T10:20:37;17.40;;;10.20;;
65172;SDS011;51758;52.218;5.172;2023-04-01T10:23:34;15.03;;;9.63;;
65172;SDS011;51758;52.218;5.172;2023-04-01T10:26:22;15.30;;;10.03;;
65172;SDS011;51758;52.218;5.172;2023-04-01T10:35:44;13.53;;;9.13;;
65172;SDS011;51758;52.218;5.172;2023-04-01T10:38:41;13.10;;;9.20;;
65172;SDS011;51758;52.218;5.172;2023-04-01T10:44:45;11.30;;;7.37;;
65172;SDS011;51758;52.218;5.172;2023-04-01T10:48:01;11.15;;;7.78;;
65172;SDS011;51758;52.218;5.172;2023-04-01T10:53:57;9.67;;;7.20;;
65172;SDS011;51758;52.218;5.172;2023-04-01T10:56:46;10.20;;;7.60;;
65172;SDS011;51758;52.218;5.172;2023-04-01T10:59:33;10.10;;;7.28;;
65172;SDS011;51758;52.218;5.172;2023-04-01T11:05:28;10.15;;;7.28;;
65172;SDS011;51758;52.218;5.172;2023-04-01T11:11:47;10.60;;;7.07;;
65172;SDS011;51758;52.218;5.172;2023-04-01T11:14:46;8.80;;;6.60;;
65172;SDS011;51758;52.218;5.172;2023-04-01T11:17:57;9.43;;;6.35;;
65172;SDS011;51758;52.218;5.172;2023-04-01T11:20:49;9.27;;;6.57;;
65172;SDS011;51758;52.218;5.172;2023-04-01T11:23:37;8.37;;;6.13;;
65172;SDS011;51758;52.218;5.172;2023-04-01T11:26:33;7.63;;;6.20;;
65172;SDS011;51758;52.218;5.172;2023-04-01T11:29:14;8.10;;;6.53;;
65172;SDS011;51758;52.218;5.172;2023-04-01T11:31:52;8.23;;;6.10;;
65172;SDS011;51758;52.218;5.172;2023-04-01T11:34:30;8.63;;;6.60;;
65172;SDS011;51758;52.218;5.172;2023-04-01T11:37:21;9.23;;;6.97;;
65172;SDS011;51758;52.218;5.172;2023-04-01T11:40:05;10.63;;;7.73;;
65172;SDS011;51758;52.218;5.172;2023-04-01T11:42:40;10.07;;;7.73;;
65172;SDS011;51758;52.218;5.172;2023-04-01T11:45:16;11.53;;;8.77;;
65172;SDS011;51758;52.218;5.172;2023-04-01T11:47:55;12.93;;;9.52;;
65172;SDS011;51758;52.218;5.172;2023-04-01T11:50:38;10.47;;;9.23;;
65172;SDS011;51758;52.218;5.172;2023-04-01T11:53:19;10.73;;;9.50;;
65172;SDS011;51758;52.218;5.172;2023-04-01T11:55:56;11.63;;;9.73;;
65172;SDS011;51758;52.218;5.172;2023-04-01T11:58:36;14.67;;;9.97;;
65172;SDS011;51758;52.218;5.172;2023-04-01T12:01:29;13.07;;;10.57;;
65172;SDS011;51758;52.218;5.172;2023-04-01T12:07:12;11.70;;;9.47;;
65172;SDS011;51758;52.218;5.172;2023-04-01T12:09:49;14.20;;;10.20;;
65172;SDS011;51758;52.218;5.172;2023-04-01T12:12:24;14.87;;;10.87;;
65172;SDS011;51758;52.218;5.172;2023-04-01T12:15:02;15.23;;;11.23;;
65172;SDS011;51758;52.218;5.172;2023-04-01T12:17:42;16.20;;;11.20;;
65172;SDS011;51758;52.218;5.172;2023-04-01T12:20:24;12.67;;;9.57;;
65172;SDS011;51758;52.218;5.172;2023-04-01T12:22:59;12.77;;;9.40;;
65172;SDS011;51758;52.218;5.172;2023-04-01T12:25:39;15.93;;;10.45;;
65172;SDS011;51758;52.218;5.172;2023-04-01T12:28:25;13.73;;;9.88;;
65172;SDS011;51758;52.218;5.172;2023-04-01T12:31:09;16.23;;;10.93;;
65172;SDS011;51758;52.218;5.172;2023-04-01T12:34:13;16.00;;;11.37;;
65172;SDS011;51758;52.218;5.172;2023-04-01T12:37:09;17.40;;;11.77;;
65172;SDS011;51758;52.218;5.172;2023-04-01T12:39:49;19.50;;;12.20;;
65172;SDS011;51758;52.218;5.172;2023-04-01T12:42:32;15.03;;;11.47;;
65172;SDS011;51758;52.218;5.172;2023-04-01T12:45:22;18.80;;;11.70;;
65172;SDS011;51758;52.218;5.172;2023-04-01T12:48:14;16.53;;;11.07;;
65172;SDS011;51758;52.218;5.172;2023-04-01T12:54:20;12.83;;;9.37;;
65172;SDS011;51758;52.218;5.172;2023-04-01T12:57:02;10.80;;;8.53;;
65172;SDS011;51758;52.218;5.172;2023-04-01T12:59:48;11.50;;;8.00;;
65172;SDS011;51758;52.218;5.172;2023-04-01T13:02:30;11.57;;;8.37;;
65172;SDS011;51758;52.218;5.172;2023-04-01T13:05:15;11.17;;;8.00;;
65172;SDS011;51758;52.218;5.172;2023-04-01T13:08:04;10.87;;;7.83;;
65172;SDS011;51758;52.218;5.172;2023-04-01T13:10:51;9.60;;;7.90;;
65172;SDS011;51758;52.218;5.172;2023-04-01T13:13:42;9.27;;;7.47;;
65172;SDS011;51758;52.218;5.172;2023-04-01T13:16:28;10.10;;;7.33;;
65172;SDS011;51758;52.218;5.172;2023-04-01T13:18:59;11.03;;;7.77;;
65172;SDS011;51758;52.218;5.172;2023-04-01T13:21:36;7.83;;;6.10;;
65172;SDS011;51758;52.218;5.172;2023-04-01T13:24:20;8.47;;;5.97;;
65172;SDS011;51758;52.218;5.172;2023-04-01T13:26:58;8.73;;;6.50;;
65172;SDS011;51758;52.218;5.172;2023-04-01T13:29:33;8.50;;;5.97;;
65172;SDS011;51758;52.218;5.172;2023-04-01T13:32:18;7.73;;;6.07;;
65172;SDS011;51758;52.218;5.172;2023-04-01T13:35:13;8.00;;;6.07;;
65172;SDS011;51758;52.218;5.172;2023-04-01T13:37:52;7.10;;;5.83;;
65172;SDS011;51758;52.218;5.172;2023-04-01T13:40:36;6.73;;;6.03;;
65172;SDS011;51758;52.218;5.172;2023-04-01T13:43:28;8.90;;;6.27;;
65172;SDS011;51758;52.218;5.172;2023-04-01T13:51:52;9.43;;;7.53;;
65172;SDS011;51758;52.218;5.172;2023-04-01T13:57:34;8.13;;;7.30;;
65172;SDS011;51758;52.218;5.172;2023-04-01T14:00:18;9.83;;;8.00;;
65172;SDS011;51758;52.218;5.172;2023-04-01T14:05:50;10.00;;;8.17;;
65172;SDS011;51758;52.218;5.172;2023-04-01T14:08:36;10.65;;;7.97;;
65172;SDS011;51758;52.218;5.172;2023-04-01T14:11:19;11.43;;;8.27;;
65172;SDS011;51758;52.218;5.172;2023-04-01T14:13:56;10.17;;;8.63;;
65172;SDS011;51758;52.218;5.172;2023-04-01T14:16:38;12.57;;;9.52;;
65172;SDS011;51758;52.218;5.172;2023-04-01T14:19:22;11.53;;;8.10;;
65172;SDS011;51758;52.218;5.172;2023-04-01T14:22:05;9.70;;;7.47;;
65172;SDS011;51758;52.218;5.172;2023-04-01T14:24:50;11.27;;;7.80;;
65172;SDS011;51758;52.218;5.172;2023-04-01T14:27:32;9.90;;;7.63;;
65172;SDS011;51758;52.218;5.172;2023-04-01T14:30:20;11.23;;;9.03;;
65172;SDS011;51758;52.218;5.172;2023-04-01T14:33:09;10.87;;;7.97;;
65172;SDS011;51758;52.218;5.172;2023-04-01T14:35:49;10.67;;;8.17;;
65172;SDS011;51758;52.218;5.172;2023-04-01T14:38:32;11.20;;;8.13;;
65172;SDS011;51758;52.218;5.172;2023-04-01T14:41:11;11.27;;;7.87;;
65172;SDS011;51758;52.218;5.172;2023-04-01T14:44:05;12.43;;;8.77;;
65172;SDS011;51758;52.218;5.172;2023-04-01T14:47:08;11.30;;;8.40;;
65172;SDS011;51758;52.218;5.172;2023-04-01T14:49:50;10.47;;;7.93;;
65172;SDS011;51758;52.218;5.172;2023-04-01T14:52:23;10.40;;;8.40;;
65172;SDS011;51758;52.218;5.172;2023-04-01T14:54:54;8.83;;;7.47;;
65172;SDS011;51758;52.218;5.172;2023-04-01T14:57:25;10.90;;;7.87;;
65172;SDS011;51758;52.218;5.172;2023-04-01T14:59:59;9.10;;;7.73;;
65172;SDS011;51758;52.218;5.172;2023-04-01T15:02:33;8.97;;;7.67;;
65172;SDS011;51758;52.218;5.172;2023-04-01T15:05:16;10.60;;;8.10;;
65172;SDS011;51758;52.218;5.172;2023-04-01T15:08:00;13.03;;;8.87;;
65172;SDS011;51758;52.218;5.172;2023-04-01T15:10:40;9.83;;;7.20;;
65172;SDS011;51758;52.218;5.172;2023-04-01T15:13:23;9.23;;;7.82;;
65172;SDS011;51758;52.218;5.172;2023-04-01T15:16:13;9.40;;;7.97;;
65172;SDS011;51758;52.218;5.172;2023-04-01T15:18:53;9.02;;;7.25;;
65172;SDS011;51758;52.218;5.172;2023-04-01T15:21:36;10.75;;;7.70;;
65172;SDS011;51758;52.218;5.172;2023-04-01T15:24:14;9.67;;;7.90;;
65172;SDS011;51758;52.218;5.172;2023-04-01T15:26:59;10.00;;;7.93;;
65172;SDS011;51758;52.218;5.172;2023-04-01T15:32:48;8.90;;;7.33;;
65172;SDS011;51758;52.218;5.172;2023-04-01T15:35:27;11.90;;;7.97;;
65172;SDS011;51758;52.218;5.172;2023-04-01T15:38:07;10.50;;;8.03;;
65172;SDS011;51758;52.218;5.172;2023-04-01T15:40:47;12.13;;;8.93;;
65172;SDS011;51758;52.218;5.172;2023-04-01T15:43:27;11.20;;;8.00;;
65172;SDS011;51758;52.218;5.172;2023-04-01T15:46:14;8.80;;;7.23;;
65172;SDS011;51758;52.218;5.172;2023-04-01T15:48:57;11.40;;;8.80;;
65172;SDS011;51758;52.218;5.172;2023-04-01T15:51:37;9.85;;;7.43;;
65172;SDS011;51758;52.218;5.172;2023-04-01T15:54:22;10.53;;;7.63;;
65172;SDS011;51758;52.218;5.172;2023-04-01T15:56:56;9.00;;;7.20;;
65172;SDS011;51758;52.218;5.172;2023-04-01T15:59:44;9.23;;;7.33;;
65172;SDS011;51758;52.218;5.172;2023-04-01T16:02:21;8.90;;;7.23;;
65172;SDS011;51758;52.218;5.172;2023-04-01T16:04:58;9.90;;;7.77;;
65172;SDS011;51758;52.218;5.172;2023-04-01T16:13:30;7.03;;;6.33;;
65172;SDS011;51758;52.218;5.172;2023-04-01T16:16:11;8.17;;;7.27;;
65172;SDS011;51758;52.218;5.172;2023-04-01T16:19:00;8.23;;;7.20;;
65172;SDS011;51758;52.218;5.172;2023-04-01T16:21:41;10.25;;;6.78;;
65172;SDS011;51758;52.218;5.172;2023-04-01T16:24:15;7.20;;;5.10;;
65172;SDS011;51758;52.218;5.172;2023-04-01T16:26:48;7.83;;;5.83;;
65172;SDS011;51758;52.218;5.172;2023-04-01T16:29:24;5.47;;;4.63;;
65172;SDS011;51758;52.218;5.172;2023-04-01T16:32:00;5.53;;;4.10;;
65172;SDS011;51758;52.218;5.172;2023-04-01T16:34:43;4.10;;;3.17;;
65172;SDS011;51758;52.218;5.172;2023-04-01T16:37:15;3.50;;;2.97;;
65172;SDS011;51758;52.218;5.172;2023-04-01T16:39:49;5.80;;;3.60;;
65172;SDS011;51758;52.218;5.172;2023-04-01T16:42:31;3.43;;;3.13;;
65172;SDS011;51758;52.218;5.172;2023-04-01T16:45:16;3.47;;;3.17;;
65172;SDS011;51758;52.218;5.172;2023-04-01T16:47:53;3.47;;;3.17;;
65172;SDS011;51758;52.218;5.172;2023-04-01T16:50:24;4.07;;;3.10;;
65172;SDS011;51758;52.218;5.172;2023-04-01T16:52:59;4.60;;;4.10;;
65172;SDS011;51758;52.218;5.172;2023-04-01T16:55:43;4.33;;;3.67;;
65172;SDS011;51758;52.218;5.172;2023-04-01T16:58:18;4.43;;;3.97;;